Time;durP1;ratioP1;P1;durP2;ratioP2;P2;SDS_P1;SDS_P2;PMS_P1;PMS_P2;Temp;Humidity;BMP_temperature;BMP_pressure;BME280_temperature;BME280_humidity;BME280_pressure;Samples;Min_cycle;Max_cycle;Signal;HPM_P1;HPM_P2
2023/07/07 00:00:37;;;;;;;12.73;5.57;;;;;;;;;;765794;183;913965;-59
2023/07/07 00:03:03;;;;;;;10.70;5.90;;;;;;;;;;763918;183;915128;-60
2023/07/07 00:05:29;;;;;;;16.33;6.60;;;;;;;;;;763853;183;920689;-59
2023/07/07 00:07:57;;;;;;;12.53;6.60;;;;;;;;;;764250;183;920832;-59
2023/07/07 00:10:21;;;;;;;15.73;5.97;;;;;;;;;;771382;180;819072;-59
2023/07/07 00:12:47;;;;;;;12.33;7.17;;;;;;;;;;763301;183;919488;-59
2023/07/07 00:15:13;;;;;;;11.90;6.40;;;;;;;;;;763768;183;914618;-60
2023/07/07 00:17:41;;;;;;;14.60;7.70;;;;;;;;;;768954;183;917698;-59
2023/07/07 00:20:08;;;;;;;16.43;7.57;;;;;;;;;;761791;183;920336;-59
2023/07/07 00:22:31;;;;;;;11.20;6.73;;;;;;;;;;765402;183;918544;-58
2023/07/07 00:24:57;;;;;;;12.70;7.57;;;;;;;;;;770388;183;853980;-59
2023/07/07 00:27:22;;;;;;;12.70;6.97;;;;;;;;;;765947;183;919378;-60
2023/07/07 00:29:48;;;;;;;13.30;7.83;;;;;;;;;;763329;183;919222;-59
2023/07/07 00:32:14;;;;;;;13.67;8.33;;;;;;;;;;764561;183;919070;-60
2023/07/07 00:34:40;;;;;;;13.63;7.70;;;;;;;;;;771640;180;817070;-59
2023/07/07 00:37:06;;;;;;;12.03;7.07;;;;;;;;;;766916;181;918199;-59
2023/07/07 00:39:32;;;;;;;13.63;8.73;;;;;;;;;;766737;182;914486;-59
2023/07/07 00:41:57;;;;;;;10.60;7.60;;;;;;;;;;770631;182;920532;-59
2023/07/07 00:44:23;;;;;;;15.38;7.70;;;;;;;;;;763348;183;920397;-59
2023/07/07 00:46:49;;;;;;;11.83;7.57;;;;;;;;;;766173;183;910552;-59
2023/07/07 00:49:15;;;;;;;12.10;7.27;;;;;;;;;;770484;183;914975;-59
2023/07/07 00:51:41;;;;;;;16.63;7.57;;;;;;;;;;764068;183;918867;-60
2023/07/07 00:54:07;;;;;;;12.07;7.10;;;;;;;;;;763501;183;919611;-59
2023/07/07 00:56:33;;;;;;;12.70;6.20;;;;;;;;;;767569;183;867539;-59
2023/07/07 00:58:59;;;;;;;13.53;6.10;;;;;;;;;;761954;183;940974;-59
2023/07/07 01:01:25;;;;;;;9.77;6.80;;;;;;;;;;765496;183;918235;-59
2023/07/07 01:03:51;;;;;;;15.50;6.73;;;;;;;;;;766881;183;802328;-60
2023/07/07 01:06:17;;;;;;;17.00;8.20;;;;;;;;;;768582;183;819144;-60
2023/07/07 01:08:42;;;;;;;13.53;7.43;;;;;;;;;;765279;183;918726;-58
2023/07/07 01:11:08;;;;;;;14.30;7.40;;;;;;;;;;765915;183;919281;-59
2023/07/07 01:13:34;;;;;;;18.80;7.80;;;;;;;;;;769648;183;926137;-59
2023/07/07 01:16:03;;;;;;;15.77;6.80;;;;;;;;;;763958;183;820240;-59
2023/07/07 01:18:29;;;;;;;9.77;7.23;;;;;;;;;;763280;183;918589;-59
2023/07/07 01:21:01;;;;;;;10.80;7.50;;;;;;;;;;763752;183;919724;-59
2023/07/07 01:23:24;;;;;;;15.77;7.10;;;;;;;;;;767190;181;866042;-59
2023/07/07 01:26:07;;;;;;;14.23;7.13;;;;;;;;;;763567;183;866300;-60
2023/07/07 01:28:53;;;;;;;15.60;8.20;;;;;;;;;;754867;183;918004;-61
2023/07/07 01:31:17;;;;;;;19.43;8.60;;;;;;;;;;760310;183;918745;-61
2023/07/07 01:33:43;;;;;;;12.67;7.23;;;;;;;;;;763650;183;918742;-64
2023/07/07 01:36:09;;;;;;;27.00;8.67;;;;;;;;;;769938;183;920020;-61
2023/07/07 01:38:36;;;;;;;12.70;8.50;;;;;;;;;;766008;183;854611;-61
2023/07/07 01:41:19;;;;;;;14.83;8.53;;;;;;;;;;766210;183;817000;-61
2023/07/07 01:43:46;;;;;;;13.93;8.60;;;;;;;;;;763321;183;939189;-61
2023/07/07 01:46:16;;;;;;;25.83;9.83;;;;;;;;;;763368;183;919538;-61
2023/07/07 01:48:42;;;;;;;18.30;9.40;;;;;;;;;;771075;181;919321;-61
2023/07/07 01:51:08;;;;;;;22.90;10.87;;;;;;;;;;766642;182;918855;-61
2023/07/07 01:53:33;;;;;;;13.53;9.87;;;;;;;;;;765565;182;919182;-62
2023/07/07 01:55:59;;;;;;;16.00;11.13;;;;;;;;;;770186;183;921639;-61
2023/07/07 01:58:25;;;;;;;13.93;9.40;;;;;;;;;;764648;183;919855;-61
2023/07/07 02:00:51;;;;;;;17.53;9.57;;;;;;;;;;765109;183;918710;-61
2023/07/07 02:03:17;;;;;;;19.33;10.77;;;;;;;;;;763933;183;920780;-62
2023/07/07 02:05:43;;;;;;;18.07;10.00;;;;;;;;;;773003;180;918969;-62
2023/07/07 02:08:08;;;;;;;14.35;9.57;;;;;;;;;;765645;183;823502;-61
2023/07/07 02:10:34;;;;;;;21.93;10.03;;;;;;;;;;764497;183;919805;-62
2023/07/07 02:13:00;;;;;;;20.93;10.10;;;;;;;;;;770916;183;921108;-62
2023/07/07 02:15:26;;;;;;;20.80;10.37;;;;;;;;;;763805;183;918573;-62
2023/07/07 02:17:52;;;;;;;21.03;8.87;;;;;;;;;;762411;183;919123;-62
2023/07/07 02:20:18;;;;;;;20.67;9.93;;;;;;;;;;770609;183;816210;-62
2023/07/07 02:22:44;;;;;;;26.57;10.93;;;;;;;;;;767747;183;907056;-62
2023/07/07 02:25:10;;;;;;;20.55;10.23;;;;;;;;;;765807;183;946732;-62
2023/07/07 02:27:35;;;;;;;19.67;10.50;;;;;;;;;;765855;183;919805;-62
2023/07/07 02:30:01;;;;;;;25.50;10.00;;;;;;;;;;762150;183;1223857;-62
2023/07/07 02:32:27;;;;;;;21.50;9.53;;;;;;;;;;764850;183;922640;-63
2023/07/07 02:34:55;;;;;;;19.75;10.93;;;;;;;;;;764265;183;918160;-63
2023/07/07 02:37:19;;;;;;;16.00;10.20;;;;;;;;;;769395;183;920676;-63
2023/07/07 02:39:45;;;;;;;14.70;9.80;;;;;;;;;;764783;183;920100;-63
2023/07/07 02:42:10;;;;;;;16.03;9.87;;;;;;;;;;765739;183;915383;-62
2023/07/07 02:44:36;;;;;;;20.80;10.60;;;;;;;;;;770142;183;906526;-61
2023/07/07 02:47:02;;;;;;;20.27;10.60;;;;;;;;;;763828;183;921919;-62
2023/07/07 02:49:28;;;;;;;19.58;9.32;;;;;;;;;;762455;183;943676;-62
2023/07/07 02:51:54;;;;;;;16.73;10.23;;;;;;;;;;769618;183;888429;-62
2023/07/07 02:54:20;;;;;;;15.80;9.63;;;;;;;;;;763819;183;919158;-63
2023/07/07 02:56:45;;;;;;;19.23;10.30;;;;;;;;;;764529;183;922391;-62
2023/07/07 02:59:11;;;;;;;23.77;10.20;;;;;;;;;;761387;182;922085;-64
2023/07/07 03:01:37;;;;;;;15.38;10.40;;;;;;;;;;773566;182;820078;-62
2023/07/07 03:04:04;;;;;;;14.03;9.10;;;;;;;;;;765665;182;919704;-63
2023/07/07 03:06:29;;;;;;;17.30;10.60;;;;;;;;;;766360;183;921876;-63
2023/07/07 03:08:55;;;;;;;19.77;10.47;;;;;;;;;;771916;183;919190;-63
2023/07/07 03:11:21;;;;;;;17.30;9.37;;;;;;;;;;767729;183;918857;-63
2023/07/07 03:13:47;;;;;;;18.33;9.10;;;;;;;;;;763657;183;918965;-63
2023/07/07 03:16:12;;;;;;;20.70;10.43;;;;;;;;;;771384;183;918638;-63
2023/07/07 03:18:38;;;;;;;22.63;10.43;;;;;;;;;;766170;183;921431;-62
2023/07/07 03:21:04;;;;;;;16.90;10.80;;;;;;;;;;766732;183;818665;-63
2023/07/07 03:23:30;;;;;;;21.03;10.37;;;;;;;;;;765697;183;818935;-62
2023/07/07 03:25:56;;;;;;;17.43;10.03;;;;;;;;;;773642;180;822618;-63
2023/07/07 03:28:22;;;;;;;20.13;11.00;;;;;;;;;;763944;183;918289;-63
2023/07/07 03:30:48;;;;;;;23.38;11.82;;;;;;;;;;765248;183;918653;-63
2023/07/07 03:33:13;;;;;;;22.77;11.93;;;;;;;;;;770491;183;919604;-63
2023/07/07 03:35:39;;;;;;;20.93;11.20;;;;;;;;;;767318;183;920445;-62
2023/07/07 03:38:05;;;;;;;13.47;9.77;;;;;;;;;;766376;183;817055;-63
2023/07/07 03:40:31;;;;;;;17.47;11.07;;;;;;;;;;768709;182;922165;-62
2023/07/07 03:42:57;;;;;;;19.10;11.10;;;;;;;;;;764134;183;816728;-64
2023/07/07 03:45:22;;;;;;;16.17;11.13;;;;;;;;;;764972;183;874989;-63
2023/07/07 03:47:50;;;;;;;17.48;10.82;;;;;;;;;;767102;183;922731;-64
2023/07/07 03:50:15;;;;;;;17.73;10.60;;;;;;;;;;764923;183;920885;-64
2023/07/07 03:52:41;;;;;;;20.97;11.10;;;;;;;;;;762464;183;921942;-63
2023/07/07 03:55:07;;;;;;;17.80;11.40;;;;;;;;;;760430;183;939917;-63
2023/07/07 03:57:33;;;;;;;19.13;11.00;;;;;;;;;;768727;183;919008;-64
2023/07/07 03:59:58;;;;;;;16.80;10.73;;;;;;;;;;766670;183;943909;-63
2023/07/07 04:02:24;;;;;;;19.23;11.50;;;;;;;;;;766008;183;919435;-62
2023/07/07 04:04:50;;;;;;;19.03;10.50;;;;;;;;;;770208;183;915232;-63
2023/07/07 04:07:16;;;;;;;18.87;10.40;;;;;;;;;;762833;183;916269;-63
2023/07/07 04:09:42;;;;;;;16.60;10.37;;;;;;;;;;763129;183;937018;-61
2023/07/07 04:12:08;;;;;;;16.27;10.67;;;;;;;;;;770992;182;918997;-61
2023/07/07 04:14:34;;;;;;;19.67;12.17;;;;;;;;;;766319;182;842175;-62
2023/07/07 04:17:00;;;;;;;13.90;10.57;;;;;;;;;;765298;182;920501;-63
2023/07/07 04:19:25;;;;;;;17.87;10.97;;;;;;;;;;764299;183;918869;-62
2023/07/07 04:21:51;;;;;;;18.30;10.40;;;;;;;;;;771697;183;917079;-61
2023/07/07 04:24:17;;;;;;;14.00;10.23;;;;;;;;;;767648;183;915183;-62
2023/07/07 04:26:43;;;;;;;16.20;11.47;;;;;;;;;;765919;183;915910;-61
2023/07/07 04:29:09;;;;;;;12.90;9.70;;;;;;;;;;769465;183;912462;-60
2023/07/07 04:31:35;;;;;;;18.52;10.55;;;;;;;;;;761632;183;920229;-62
2023/07/07 04:34:01;;;;;;;19.97;11.30;;;;;;;;;;764667;183;814478;-62
2023/07/07 04:36:26;;;;;;;19.20;11.07;;;;;;;;;;771098;183;838092;-62
2023/07/07 04:38:53;;;;;;;16.83;10.47;;;;;;;;;;764505;183;915152;-61
2023/07/07 04:41:20;;;;;;;14.90;10.40;;;;;;;;;;766376;183;829396;-62
2023/07/07 04:43:47;;;;;;;15.30;10.07;;;;;;;;;;761928;183;871600;-61
2023/07/07 04:46:13;;;;;;;17.57;9.47;;;;;;;;;;770015;183;920569;-61
2023/07/07 04:48:39;;;;;;;13.30;9.53;;;;;;;;;;766552;183;919248;-61
2023/07/07 04:51:06;;;;;;;19.20;11.40;;;;;;;;;;766186;183;820770;-61
2023/07/07 04:53:30;;;;;;;13.20;9.30;;;;;;;;;;767827;183;916541;-61
2023/07/07 04:55:56;;;;;;;15.63;10.40;;;;;;;;;;759331;183;919591;-63
2023/07/07 04:58:22;;;;;;;18.80;9.30;;;;;;;;;;760892;183;923164;-61
2023/07/07 05:00:48;;;;;;;15.50;9.00;;;;;;;;;;770487;183;919382;-61
2023/07/07 05:03:14;;;;;;;19.03;10.90;;;;;;;;;;762417;183;922133;-61
2023/07/07 05:05:40;;;;;;;15.40;9.80;;;;;;;;;;764103;183;920527;-61
2023/07/07 05:08:05;;;;;;;17.50;11.43;;;;;;;;;;764200;183;928685;-61
2023/07/07 05:10:31;;;;;;;14.70;9.80;;;;;;;;;;770861;183;918381;-62
2023/07/07 05:12:57;;;;;;;14.90;9.37;;;;;;;;;;766239;183;919427;-62
2023/07/07 05:15:23;;;;;;;21.43;9.00;;;;;;;;;;765141;183;921291;-61
2023/07/07 05:17:49;;;;;;;13.75;9.48;;;;;;;;;;768873;183;909473;-61
2023/07/07 05:20:15;;;;;;;16.93;10.23;;;;;;;;;;763853;183;919028;-61
2023/07/07 05:22:40;;;;;;;14.57;9.00;;;;;;;;;;764026;181;919122;-62
2023/07/07 05:25:07;;;;;;;14.47;9.57;;;;;;;;;;772803;182;919372;-61
2023/07/07 05:27:32;;;;;;;14.10;10.27;;;;;;;;;;765312;182;921198;-62
2023/07/07 05:29:58;;;;;;;15.03;9.13;;;;;;;;;;765058;183;920650;-62
2023/07/07 05:32:24;;;;;;;14.50;9.43;;;;;;;;;;766044;183;922244;-62
2023/07/07 05:34:50;;;;;;;16.53;9.27;;;;;;;;;;773652;180;918164;-60
2023/07/07 05:37:16;;;;;;;15.20;8.83;;;;;;;;;;767111;183;817890;-61
2023/07/07 05:39:42;;;;;;;16.90;9.07;;;;;;;;;;765788;183;942875;-63
2023/07/07 05:42:07;;;;;;;15.20;8.40;;;;;;;;;;767726;183;823532;-60
2023/07/07 05:44:33;;;;;;;12.67;9.10;;;;;;;;;;765381;183;919216;-61
2023/07/07 05:46:59;;;;;;;13.10;9.30;;;;;;;;;;764959;183;919644;-61
2023/07/07 05:49:25;;;;;;;14.97;9.73;;;;;;;;;;770906;183;955368;-60
2023/07/07 05:51:51;;;;;;;11.17;7.87;;;;;;;;;;764307;183;918881;-60
2023/07/07 05:54:17;;;;;;;11.53;8.33;;;;;;;;;;764665;183;1021299;-60
2023/07/07 05:56:42;;;;;;;13.03;8.40;;;;;;;;;;765979;183;916412;-61
2023/07/07 05:59:08;;;;;;;15.98;7.97;;;;;;;;;;768157;182;1021307;-60
2023/07/07 06:01:35;;;;;;;9.83;7.40;;;;;;;;;;763741;183;1071167;-60
2023/07/07 06:04:00;;;;;;;13.07;7.60;;;;;;;;;;764923;183;864759;-61
2023/07/07 06:06:26;;;;;;;13.60;9.17;;;;;;;;;;769382;183;937595;-61
2023/07/07 06:08:52;;;;;;;12.27;8.10;;;;;;;;;;763532;183;919439;-60
2023/07/07 06:11:18;;;;;;;11.73;7.67;;;;;;;;;;764945;183;915181;-60
2023/07/07 06:13:43;;;;;;;11.53;8.10;;;;;;;;;;769703;183;914462;-60
2023/07/07 06:16:09;;;;;;;11.60;7.90;;;;;;;;;;751484;183;940556;-60
2023/07/07 06:18:35;;;;;;;14.07;8.80;;;;;;;;;;761265;183;925575;-60
2023/07/07 06:21:01;;;;;;;14.63;10.30;;;;;;;;;;770654;183;846135;-61
2023/07/07 06:23:27;;;;;;;12.63;8.60;;;;;;;;;;762823;183;919018;-61
2023/07/07 06:25:53;;;;;;;15.83;9.50;;;;;;;;;;765728;183;886080;-60
2023/07/07 06:28:18;;;;;;;11.80;8.83;;;;;;;;;;765249;183;920459;-61
2023/07/07 06:30:44;;;;;;;11.20;6.90;;;;;;;;;;768562;183;994862;-60
2023/07/07 06:33:10;;;;;;;14.30;7.83;;;;;;;;;;763766;183;918705;-61
2023/07/07 06:35:36;;;;;;;11.13;8.00;;;;;;;;;;766782;181;919137;-62
2023/07/07 06:38:02;;;;;;;13.20;8.00;;;;;;;;;;771447;182;819819;-60
2023/07/07 06:40:29;;;;;;;11.57;7.13;;;;;;;;;;762992;183;918046;-60
2023/07/07 06:42:55;;;;;;;14.03;7.90;;;;;;;;;;766342;183;920983;-61
2023/07/07 06:45:20;;;;;;;10.87;7.50;;;;;;;;;;768656;183;915751;-61
2023/07/07 06:47:45;;;;;;;12.63;7.00;;;;;;;;;;764539;183;926532;-59
2023/07/07 06:50:11;;;;;;;8.90;5.83;;;;;;;;;;766962;183;915590;-60
2023/07/07 06:52:37;;;;;;;11.03;6.13;;;;;;;;;;765610;183;816151;-60
2023/07/07 06:55:03;;;;;;;12.93;6.37;;;;;;;;;;765560;182;920257;-61
2023/07/07 06:57:29;;;;;;;11.70;6.80;;;;;;;;;;765647;183;919127;-60
2023/07/07 06:59:55;;;;;;;10.40;6.40;;;;;;;;;;763920;183;923104;-60
2023/07/07 07:02:21;;;;;;;7.80;5.67;;;;;;;;;;769488;183;847797;-61
2023/07/07 07:04:47;;;;;;;11.60;7.20;;;;;;;;;;765849;183;919172;-60
2023/07/07 07:07:12;;;;;;;10.10;5.70;;;;;;;;;;763518;183;1024708;-60
2023/07/07 07:09:38;;;;;;;10.93;7.17;;;;;;;;;;768503;183;905056;-61
2023/07/07 07:12:05;;;;;;;8.50;5.90;;;;;;;;;;765315;183;920658;-61
2023/07/07 07:14:30;;;;;;;8.63;6.03;;;;;;;;;;767025;183;810550;-61
2023/07/07 07:16:56;;;;;;;12.60;6.37;;;;;;;;;;767970;183;898611;-62
2023/07/07 07:19:22;;;;;;;9.83;6.70;;;;;;;;;;772358;180;905473;-61
2023/07/07 07:21:48;;;;;;;10.87;7.17;;;;;;;;;;768074;183;627426;-61
2023/07/07 07:24:14;;;;;;;7.30;5.13;;;;;;;;;;768269;183;628393;-61
2023/07/07 07:26:40;;;;;;;10.10;5.90;;;;;;;;;;767735;183;893089;-60
2023/07/07 07:29:06;;;;;;;10.30;6.00;;;;;;;;;;764979;183;918854;-61
2023/07/07 07:31:31;;;;;;;10.40;5.53;;;;;;;;;;767407;183;915976;-60
2023/07/07 07:33:57;;;;;;;14.37;4.80;;;;;;;;;;769359;183;923769;-60
2023/07/07 07:36:23;;;;;;;13.03;6.70;;;;;;;;;;764480;183;817518;-60
2023/07/07 07:38:49;;;;;;;14.38;5.95;;;;;;;;;;763991;183;919601;-61
2023/07/07 07:41:15;;;;;;;10.55;4.82;;;;;;;;;;764847;183;918539;-62
2023/07/07 07:43:41;;;;;;;7.73;5.17;;;;;;;;;;769481;180;916163;-61
2023/07/07 07:46:07;;;;;;;7.33;4.77;;;;;;;;;;767345;180;896427;-61
2023/07/07 07:48:33;;;;;;;9.88;5.82;;;;;;;;;;764122;182;919298;-61
2023/07/07 07:50:59;;;;;;;9.43;5.47;;;;;;;;;;769526;182;920363;-61
2023/07/07 07:53:25;;;;;;;8.93;4.50;;;;;;;;;;767674;183;918775;-62
2023/07/07 07:55:50;;;;;;;8.83;5.40;;;;;;;;;;766445;183;918985;-60
2023/07/07 07:58:16;;;;;;;8.67;4.67;;;;;;;;;;770812;183;918481;-61
2023/07/07 08:00:42;;;;;;;9.00;4.53;;;;;;;;;;763399;183;941395;-62
2023/07/07 08:03:08;;;;;;;12.90;4.67;;;;;;;;;;766092;183;919067;-60
2023/07/07 08:05:34;;;;;;;7.63;5.00;;;;;;;;;;766932;183;919738;-60
2023/07/07 08:08:00;;;;;;;14.50;5.10;;;;;;;;;;762793;183;919134;-61
2023/07/07 08:10:25;;;;;;;6.93;5.33;;;;;;;;;;765025;183;919236;-61
2023/07/07 08:12:51;;;;;;;7.70;5.00;;;;;;;;;;764519;183;919012;-60
2023/07/07 08:15:17;;;;;;;8.73;4.90;;;;;;;;;;766440;183;919725;-61
2023/07/07 08:17:43;;;;;;;7.80;4.60;;;;;;;;;;763490;183;919294;-61
2023/07/07 08:20:10;;;;;;;11.07;5.10;;;;;;;;;;765145;183;943985;-60
2023/07/07 08:22:36;;;;;;;6.77;4.20;;;;;;;;;;758836;183;739177;-61
2023/07/07 08:25:02;;;;;;;10.10;4.70;;;;;;;;;;764173;183;922493;-60
2023/07/07 08:27:28;;;;;;;9.00;4.10;;;;;;;;;;760095;183;849758;-60
2023/07/07 08:29:53;;;;;;;8.07;4.33;;;;;;;;;;769386;183;903271;-62
2023/07/07 08:32:21;;;;;;;6.23;4.40;;;;;;;;;;764420;183;914115;-62
2023/07/07 08:34:45;;;;;;;6.70;4.00;;;;;;;;;;764409;183;914945;-61
2023/07/07 08:37:11;;;;;;;7.60;4.57;;;;;;;;;;763626;183;914283;-62
2023/07/07 08:39:37;;;;;;;7.20;4.10;;;;;;;;;;770009;183;909890;-62
2023/07/07 08:42:03;;;;;;;13.93;4.10;;;;;;;;;;766550;183;912475;-61
2023/07/07 08:44:28;;;;;;;7.13;3.80;;;;;;;;;;764550;183;914992;-62
2023/07/07 08:47:09;;;;;;;7.10;4.33;;;;;;;;;;769726;183;814000;-62
2023/07/07 08:49:51;;;;;;;6.83;3.73;;;;;;;;;;762651;183;922206;-61
2023/07/07 08:52:23;;;;;;;6.65;4.05;;;;;;;;;;767757;183;918360;-62
2023/07/07 08:54:51;;;;;;;7.30;4.40;;;;;;;;;;763827;183;921892;-64
2023/07/07 08:57:18;;;;;;;5.07;3.53;;;;;;;;;;762349;182;919954;-64
2023/07/07 08:59:59;;;;;;;6.50;3.60;;;;;;;;;;766412;182;917265;-64
2023/07/07 09:02:25;;;;;;;7.60;3.90;;;;;;;;;;762757;182;919907;-63
2023/07/07 09:05:02;;;;;;;7.07;3.97;;;;;;;;;;771011;183;918355;-63
2023/07/07 09:07:47;;;;;;;7.30;3.77;;;;;;;;;;763331;183;918780;-62
2023/07/07 09:10:13;;;;;;;3.73;2.87;;;;;;;;;;763854;183;878472;-64
2023/07/07 09:12:48;;;;;;;11.20;3.50;;;;;;;;;;765891;183;839860;-63
2023/07/07 09:15:14;;;;;;;5.60;3.27;;;;;;;;;;762564;183;917540;-63
2023/07/07 09:17:40;;;;;;;11.37;3.50;;;;;;;;;;768357;183;898311;-63
2023/07/07 09:20:07;;;;;;;6.43;3.70;;;;;;;;;;765706;183;920111;-64
2023/07/07 09:22:34;;;;;;;5.93;3.80;;;;;;;;;;764997;183;918940;-64
2023/07/07 09:25:10;;;;;;;10.90;3.70;;;;;;;;;;765309;183;919167;-64
2023/07/07 09:27:36;;;;;;;6.20;3.78;;;;;;;;;;767637;183;921551;-63
2023/07/07 09:30:02;;;;;;;9.93;3.40;;;;;;;;;;762972;183;917314;-63
2023/07/07 09:32:28;;;;;;;4.50;2.57;;;;;;;;;;762525;183;919630;-62
2023/07/07 09:34:54;;;;;;;5.53;3.10;;;;;;;;;;763496;183;834204;-65
2023/07/07 09:37:23;;;;;;;9.67;3.10;;;;;;;;;;770103;183;921092;-63
2023/07/07 09:40:00;;;;;;;4.43;2.50;;;;;;;;;;764532;183;922626;-63
2023/07/07 09:42:27;;;;;;;5.47;3.00;;;;;;;;;;766315;183;852099;-65
2023/07/07 09:44:57;;;;;;;4.40;2.83;;;;;;;;;;760642;183;1016472;-64
2023/07/07 09:47:23;;;;;;;6.50;3.70;;;;;;;;;;768293;183;919540;-64
2023/07/07 09:49:50;;;;;;;5.03;2.80;;;;;;;;;;764279;183;912679;-65
2023/07/07 09:52:19;;;;;;;4.95;2.95;;;;;;;;;;763591;183;919641;-64
2023/07/07 09:54:45;;;;;;;3.83;2.13;;;;;;;;;;762617;183;883667;-65
2023/07/07 09:57:17;;;;;;;4.77;2.97;;;;;;;;;;770736;183;800798;-65
2023/07/07 09:59:43;;;;;;;3.60;2.17;;;;;;;;;;763089;183;917294;-64
2023/07/07 10:02:09;;;;;;;7.53;3.10;;;;;;;;;;763431;183;917685;-64
2023/07/07 10:04:34;;;;;;;8.30;3.10;;;;;;;;;;763137;182;816956;-66
2023/07/07 10:07:00;;;;;;;4.73;2.93;;;;;;;;;;771483;180;917672;-64
2023/07/07 10:09:28;;;;;;;6.37;2.60;;;;;;;;;;763983;181;923271;-64
2023/07/07 10:11:52;;;;;;;5.43;2.90;;;;;;;;;;766417;182;918167;-65
2023/07/07 10:14:18;;;;;;;4.70;3.13;;;;;;;;;;770113;182;915735;-64
2023/07/07 10:16:49;;;;;;;5.33;2.67;;;;;;;;;;762988;183;918656;-64
2023/07/07 10:19:16;;;;;;;4.13;2.40;;;;;;;;;;765200;183;901242;-67
2023/07/07 10:21:41;;;;;;;5.97;2.90;;;;;;;;;;769626;183;846049;-65
2023/07/07 10:24:06;;;;;;;6.30;3.10;;;;;;;;;;768323;180;919133;-65
2023/07/07 10:26:32;;;;;;;5.07;2.83;;;;;;;;;;766422;183;916544;-65
2023/07/07 10:28:58;;;;;;;4.10;2.43;;;;;;;;;;766163;183;904095;-64
2023/07/07 10:31:24;;;;;;;5.13;2.47;;;;;;;;;;769186;183;919396;-64
2023/07/07 10:33:50;;;;;;;6.40;2.87;;;;;;;;;;767685;183;918947;-65
2023/07/07 10:36:19;;;;;;;5.47;2.97;;;;;;;;;;769106;183;628278;-65
2023/07/07 10:38:45;;;;;;;9.67;2.57;;;;;;;;;;770865;183;938251;-63
2023/07/07 10:41:11;;;;;;;5.23;2.40;;;;;;;;;;765073;183;897600;-66
2023/07/07 10:43:37;;;;;;;4.73;2.87;;;;;;;;;;762646;183;918131;-65
2023/07/07 10:46:03;;;;;;;5.43;2.78;;;;;;;;;;766667;183;811885;-65
2023/07/07 10:48:29;;;;;;;5.03;3.00;;;;;;;;;;772934;180;803157;-64
2023/07/07 10:50:57;;;;;;;4.90;2.70;;;;;;;;;;765491;183;903972;-64
2023/07/07 10:53:23;;;;;;;5.87;3.00;;;;;;;;;;758115;183;947230;-64
2023/07/07 10:55:57;;;;;;;5.07;2.90;;;;;;;;;;768663;183;915113;-64
2023/07/07 10:58:25;;;;;;;4.43;2.83;;;;;;;;;;768108;183;920354;-64
2023/07/07 11:00:51;;;;;;;5.27;2.60;;;;;;;;;;764039;183;919997;-66
2023/07/07 11:03:31;;;;;;;4.10;2.63;;;;;;;;;;765849;183;818115;-67
2023/07/07 11:05:57;;;;;;;8.03;2.80;;;;;;;;;;763105;183;816611;-65
2023/07/07 11:08:23;;;;;;;8.00;2.87;;;;;;;;;;770162;183;784750;-66
2023/07/07 11:10:51;;;;;;;7.30;3.00;;;;;;;;;;763410;183;850125;-63
2023/07/07 11:13:26;;;;;;;4.97;2.60;;;;;;;;;;765764;183;919327;-65
2023/07/07 11:15:54;;;;;;;4.80;3.10;;;;;;;;;;764875;183;882309;-65
2023/07/07 11:18:36;;;;;;;6.40;3.80;;;;;;;;;;770407;183;892381;-64
2023/07/07 11:21:14;;;;;;;5.40;2.87;;;;;;;;;;764083;181;919681;-64
2023/07/07 11:23:59;;;;;;;4.80;2.73;;;;;;;;;;768373;182;817321;-63
2023/07/07 11:26:26;;;;;;;3.93;2.80;;;;;;;;;;765572;183;819031;-63
2023/07/07 11:28:52;;;;;;;4.57;2.50;;;;;;;;;;765763;183;918666;-64
2023/07/07 11:31:20;;;;;;;4.07;2.50;;;;;;;;;;760335;183;919297;-65
2023/07/07 11:33:52;;;;;;;6.27;3.73;;;;;;;;;;772289;183;652877;-64
2023/07/07 11:36:31;;;;;;;5.80;3.10;;;;;;;;;;770502;183;916376;-63
2023/07/07 11:38:59;;;;;;;6.40;3.00;;;;;;;;;;770554;183;839252;-64
2023/07/07 11:41:24;;;;;;;3.80;2.80;;;;;;;;;;759611;183;816593;-64
2023/07/07 11:43:51;;;;;;;5.67;3.10;;;;;;;;;;761680;183;812649;-64
2023/07/07 11:46:36;;;;;;;4.43;2.87;;;;;;;;;;770614;183;637351;-64
2023/07/07 11:49:16;;;;;;;5.03;3.37;;;;;;;;;;766862;183;618548;-64
2023/07/07 11:51:59;;;;;;;4.53;2.90;;;;;;;;;;763875;183;816353;-62
2023/07/07 11:54:41;;;;;;;6.00;2.70;;;;;;;;;;765443;183;919114;-64
2023/07/07 11:57:11;;;;;;;5.33;3.07;;;;;;;;;;768065;183;847881;-66
2023/07/07 11:59:43;;;;;;;3.00;2.00;;;;;;;;;;760249;183;920279;-61
2023/07/07 12:02:09;;;;;;;4.13;2.50;;;;;;;;;;763178;183;924373;-65
2023/07/07 12:04:35;;;;;;;5.53;3.10;;;;;;;;;;763391;183;924614;-63
2023/07/07 12:07:01;;;;;;;4.57;2.47;;;;;;;;;;767120;183;921867;-63
2023/07/07 12:09:45;;;;;;;4.20;2.63;;;;;;;;;;766596;183;816950;-63
2023/07/07 12:12:11;;;;;;;874.07;165.87;;;;;;;;;;763604;182;913204;-61
2023/07/07 12:14:39;;;;;;;576.60;127.80;;;;;;;;;;768135;183;643159;-62
2023/07/07 12:17:05;;;;;;;10.03;3.57;;;;;;;;;;765406;183;613841;-62
2023/07/07 12:19:32;;;;;;;3.87;2.43;;;;;;;;;;770808;183;618594;-65
2023/07/07 12:21:57;;;;;;;4.53;2.67;;;;;;;;;;765802;183;697753;-64
2023/07/07 12:24:24;;;;;;;4.43;2.23;;;;;;;;;;763532;183;932017;-62
2023/07/07 12:26:51;;;;;;;4.53;2.70;;;;;;;;;;769538;183;921543;-63
2023/07/07 12:29:17;;;;;;;4.03;2.50;;;;;;;;;;762297;183;919541;-64
2023/07/07 12:31:43;;;;;;;4.20;2.13;;;;;;;;;;763856;182;921140;-63
2023/07/07 12:34:14;;;;;;;7.27;3.27;;;;;;;;;;771251;182;917636;-62
2023/07/07 12:36:40;;;;;;;7.50;2.70;;;;;;;;;;765462;183;908203;-61
2023/07/07 12:39:06;;;;;;;4.83;2.50;;;;;;;;;;766138;183;819153;-63
2023/07/07 12:41:32;;;;;;;4.40;2.17;;;;;;;;;;765821;183;822052;-62
2023/07/07 12:43:57;;;;;;;4.03;2.40;;;;;;;;;;766772;183;920544;-63
2023/07/07 12:46:23;;;;;;;3.73;2.20;;;;;;;;;;769094;183;819235;-63
2023/07/07 12:48:49;;;;;;;8.10;2.77;;;;;;;;;;767278;183;917337;-61
2023/07/07 12:51:15;;;;;;;3.67;2.20;;;;;;;;;;771293;183;917948;-62
2023/07/07 12:53:41;;;;;;;4.27;2.53;;;;;;;;;;764193;183;908729;-63
2023/07/07 12:56:22;;;;;;;5.20;3.00;;;;;;;;;;765084;183;815566;-63
2023/07/07 12:58:58;;;;;;;5.17;2.70;;;;;;;;;;759940;183;916231;-63
2023/07/07 13:01:30;;;;;;;3.97;2.23;;;;;;;;;;763288;183;922301;-61
2023/07/07 13:03:59;;;;;;;7.20;2.83;;;;;;;;;;764748;183;849641;-63
2023/07/07 13:06:33;;;;;;;4.47;2.20;;;;;;;;;;771539;179;920127;-64
2023/07/07 13:09:03;;;;;;;5.27;2.70;;;;;;;;;;763360;183;920448;-61
2023/07/07 13:11:31;;;;;;;6.33;2.27;;;;;;;;;;760910;183;953111;-62
2023/07/07 13:13:56;;;;;;;5.47;2.50;;;;;;;;;;764500;183;919506;-62
2023/07/07 13:16:22;;;;;;;5.53;2.60;;;;;;;;;;767220;183;919425;-61
2023/07/07 13:18:48;;;;;;;3.40;2.07;;;;;;;;;;765985;183;920239;-63
2023/07/07 13:21:15;;;;;;;3.83;2.50;;;;;;;;;;765026;183;920135;-62
2023/07/07 13:23:42;;;;;;;3.13;2.13;;;;;;;;;;770551;183;820069;-65
2023/07/07 13:26:14;;;;;;;7.60;2.73;;;;;;;;;;765181;183;921919;-63
2023/07/07 13:28:39;;;;;;;3.17;2.40;;;;;;;;;;734006;176;919367;-71
2023/07/07 13:31:05;;;;;;;6.30;2.13;;;;;;;;;;711921;195;918352;-72
2023/07/07 13:33:31;;;;;;;7.00;3.23;;;;;;;;;;747157;184;902498;-71
2023/07/07 13:35:58;;;;;;;4.70;2.50;;;;;;;;;;756338;184;920830;-72
2023/07/07 13:38:25;;;;;;;3.80;2.70;;;;;;;;;;750558;185;917071;-71
2023/07/07 13:40:49;;;;;;;6.13;2.87;;;;;;;;;;751498;184;925276;-72
2023/07/07 13:43:21;;;;;;;6.23;2.70;;;;;;;;;;749111;185;914243;-72
2023/07/07 13:45:47;;;;;;;8.83;3.17;;;;;;;;;;755613;184;852061;-72
2023/07/07 13:48:16;;;;;;;5.93;2.70;;;;;;;;;;755442;181;921353;-65
2023/07/07 13:50:42;;;;;;;4.07;2.70;;;;;;;;;;748599;186;818560;-64
2023/07/07 13:53:08;;;;;;;6.20;2.80;;;;;;;;;;738868;186;930029;-64
2023/07/07 13:55:33;;;;;;;3.23;2.07;;;;;;;;;;736715;187;918988;-63
2023/07/07 13:58:00;;;;;;;6.90;2.40;;;;;;;;;;738459;189;1021607;-64
2023/07/07 14:00:26;;;;;;;5.40;2.67;;;;;;;;;;737757;189;820837;-64
2023/07/07 14:02:52;;;;;;;4.10;3.07;;;;;;;;;;746586;187;919080;-63
2023/07/07 14:05:18;;;;;;;3.50;2.60;;;;;;;;;;735756;187;918289;-64
2023/07/07 14:07:44;;;;;;;4.23;2.40;;;;;;;;;;744886;187;939376;-64
2023/07/07 14:10:25;;;;;;;6.40;2.53;;;;;;;;;;735874;188;929313;-64
2023/07/07 14:12:51;;;;;;;5.73;2.60;;;;;;;;;;734062;188;918413;-64
2023/07/07 14:15:17;;;;;;;3.33;2.00;;;;;;;;;;737745;189;921699;-65
2023/07/07 14:17:43;;;;;;;4.27;2.60;;;;;;;;;;740604;186;816262;-64
2023/07/07 14:20:18;;;;;;;4.60;2.50;;;;;;;;;;736221;188;917706;-64